sensor_id;sensor_type;location;lat;lon;timestamp;temperature;humidity
67196;DHT22;54122;53.538;49.366;2023-11-21T00:00:35;1.20;91.70
67196;DHT22;54122;53.538;49.366;2023-11-21T00:03:01;1.20;91.80
67196;DHT22;54122;53.538;49.366;2023-11-21T00:05:28;1.20;91.80
67196;DHT22;54122;53.538;49.366;2023-11-21T00:07:54;1.20;91.90
67196;DHT22;54122;53.538;49.366;2023-11-21T00:10:21;1.20;91.90
67196;DHT22;54122;53.538;49.366;2023-11-21T00:12:47;1.10;91.90
67196;DHT22;54122;53.538;49.366;2023-11-21T00:15:14;1.20;92.00
67196;DHT22;54122;53.538;49.366;2023-11-21T00:17:40;1.10;92.10
67196;DHT22;54122;53.538;49.366;2023-11-21T00:20:07;1.10;92.10
67196;DHT22;54122;53.538;49.366;2023-11-21T00:22:36;1.10;92.20
67196;DHT22;54122;53.538;49.366;2023-11-21T00:25:03;1.10;92.20
67196;DHT22;54122;53.538;49.366;2023-11-21T00:27:30;1.10;92.40
67196;DHT22;54122;53.538;49.366;2023-11-21T00:29:56;1.10;92.40
67196;DHT22;54122;53.538;49.366;2023-11-21T00:32:22;1.10;92.50
67196;DHT22;54122;53.538;49.366;2023-11-21T00:34:49;1.10;92.60
67196;DHT22;54122;53.538;49.366;2023-11-21T00:37:15;1.10;92.60
67196;DHT22;54122;53.538;49.366;2023-11-21T00:39:41;1.10;92.60
67196;DHT22;54122;53.538;49.366;2023-11-21T00:42:08;1.10;92.70
67196;DHT22;54122;53.538;49.366;2023-11-21T00:44:38;1.10;92.80
67196;DHT22;54122;53.538;49.366;2023-11-21T00:47:05;1.10;92.90
67196;DHT22;54122;53.538;49.366;2023-11-21T00:49:32;1.10;93.00
67196;DHT22;54122;53.538;49.366;2023-11-21T00:51:58;1.10;93.00
67196;DHT22;54122;53.538;49.366;2023-11-21T00:54:25;1.10;93.00
67196;DHT22;54122;53.538;49.366;2023-11-21T00:56:52;1.10;93.10
67196;DHT22;54122;53.538;49.366;2023-11-21T00:59:18;1.20;93.10
67196;DHT22;54122;53.538;49.366;2023-11-21T01:01:44;1.20;93.10
67196;DHT22;54122;53.538;49.366;2023-11-21T01:04:10;1.20;93.20
67196;DHT22;54122;53.538;49.366;2023-11-21T01:06:37;1.20;93.10
67196;DHT22;54122;53.538;49.366;2023-11-21T01:09:04;1.20;93.20
67196;DHT22;54122;53.538;49.366;2023-11-21T01:11:37;1.20;93.20
67196;DHT22;54122;53.538;49.366;2023-11-21T01:14:04;1.20;93.10
67196;DHT22;54122;53.538;49.366;2023-11-21T01:16:30;1.20;93.60
67196;DHT22;54122;53.538;49.366;2023-11-21T01:18:59;1.20;93.20
67196;DHT22;54122;53.538;49.366;2023-11-21T01:21:26;1.30;93.20
67196;DHT22;54122;53.538;49.366;2023-11-21T01:23:54;1.30;93.20
67196;DHT22;54122;53.538;49.366;2023-11-21T01:26:21;1.30;93.20
67196;DHT22;54122;53.538;49.366;2023-11-21T01:28:47;1.30;93.20
67196;DHT22;54122;53.538;49.366;2023-11-21T01:31:16;1.30;93.20
67196;DHT22;54122;53.538;49.366;2023-11-21T01:33:42;1.30;93.20
67196;DHT22;54122;53.538;49.366;2023-11-21T01:36:09;1.30;93.70
67196;DHT22;54122;53.538;49.366;2023-11-21T01:38:36;1.30;93.30
67196;DHT22;54122;53.538;49.366;2023-11-21T01:41:02;1.30;93.30
67196;DHT22;54122;53.538;49.366;2023-11-21T01:43:29;1.30;93.30
67196;DHT22;54122;53.538;49.366;2023-11-21T01:45:57;1.40;93.40
67196;DHT22;54122;53.538;49.366;2023-11-21T01:48:25;1.40;93.40
67196;DHT22;54122;53.538;49.366;2023-11-21T01:50:52;1.40;93.30
67196;DHT22;54122;53.538;49.366;2023-11-21T01:53:18;1.40;93.40
67196;DHT22;54122;53.538;49.366;2023-11-21T01:55:45;1.40;93.30
67196;DHT22;54122;53.538;49.366;2023-11-21T01:58:12;1.40;93.40
67196;DHT22;54122;53.538;49.366;2023-11-21T02:00:38;1.40;93.40
67196;DHT22;54122;53.538;49.366;2023-11-21T02:03:05;1.40;93.40
67196;DHT22;54122;53.538;49.366;2023-11-21T02:05:33;1.40;93.40
67196;DHT22;54122;53.538;49.366;2023-11-21T02:07:59;1.40;93.50
67196;DHT22;54122;53.538;49.366;2023-11-21T02:10:26;1.50;93.40
67196;DHT22;54122;53.538;49.366;2023-11-21T02:12:52;1.40;93.50
67196;DHT22;54122;53.538;49.366;2023-11-21T02:15:19;1.40;93.50
67196;DHT22;54122;53.538;49.366;2023-11-21T02:17:50;1.50;93.50
67196;DHT22;54122;53.538;49.366;2023-11-21T02:20:21;1.50;93.50
67196;DHT22;54122;53.538;49.366;2023-11-21T02:22:55;1.50;93.50
67196;DHT22;54122;53.538;49.366;2023-11-21T02:25:26;1.50;93.50
67196;DHT22;54122;53.538;49.366;2023-11-21T02:27:56;1.50;93.40
67196;DHT22;54122;53.538;49.366;2023-11-21T02:30:23;1.50;93.50
67196;DHT22;54122;53.538;49.366;2023-11-21T02:32:51;1.60;93.50
67196;DHT22;54122;53.538;49.366;2023-11-21T02:35:21;1.60;93.50
67196;DHT22;54122;53.538;49.366;2023-11-21T02:37:48;1.60;93.50
67196;DHT22;54122;53.538;49.366;2023-11-21T02:40:14;1.60;93.40
67196;DHT22;54122;53.538;49.366;2023-11-21T02:42:44;1.60;93.40
67196;DHT22;54122;53.538;49.366;2023-11-21T02:45:10;1.60;93.50
67196;DHT22;54122;53.538;49.366;2023-11-21T02:47:40;1.60;93.50
67196;DHT22;54122;53.538;49.366;2023-11-21T02:50:07;1.60;93.50
67196;DHT22;54122;53.538;49.366;2023-11-21T02:52:35;1.60;93.40
67196;DHT22;54122;53.538;49.366;2023-11-21T02:55:03;1.70;93.50
67196;DHT22;54122;53.538;49.366;2023-11-21T02:57:29;1.70;93.50
67196;DHT22;54122;53.538;49.366;2023-11-21T02:59:56;1.60;93.40
67196;DHT22;54122;53.538;49.366;2023-11-21T03:02:22;1.70;93.50
67196;DHT22;54122;53.538;49.366;2023-11-21T03:04:50;1.70;93.50
67196;DHT22;54122;53.538;49.366;2023-11-21T03:07:16;1.70;93.40
67196;DHT22;54122;53.538;49.366;2023-11-21T03:09:45;1.70;93.50
67196;DHT22;54122;53.538;49.366;2023-11-21T03:12:12;1.70;93.50
67196;DHT22;54122;53.538;49.366;2023-11-21T03:14:41;1.70;93.50
67196;DHT22;54122;53.538;49.366;2023-11-21T03:17:08;1.70;93.50
67196;DHT22;54122;53.538;49.366;2023-11-21T03:19:34;1.70;93.50
67196;DHT22;54122;53.538;49.366;2023-11-21T03:22:00;1.70;93.50
67196;DHT22;54122;53.538;49.366;2023-11-21T03:24:26;1.70;93.50
67196;DHT22;54122;53.538;49.366;2023-11-21T03:26:53;1.80;93.50
67196;DHT22;54122;53.538;49.366;2023-11-21T03:29:19;1.80;93.50
67196;DHT22;54122;53.538;49.366;2023-11-21T03:31:45;1.80;93.40
67196;DHT22;54122;53.538;49.366;2023-11-21T03:34:16;1.80;93.40
67196;DHT22;54122;53.538;49.366;2023-11-21T03:36:43;1.80;93.50
67196;DHT22;54122;53.538;49.366;2023-11-21T03:39:10;1.80;93.50
67196;DHT22;54122;53.538;49.366;2023-11-21T03:41:36;1.80;93.50
67196;DHT22;54122;53.538;49.366;2023-11-21T03:44:02;1.80;93.40
67196;DHT22;54122;53.538;49.366;2023-11-21T03:46:28;1.80;93.50
67196;DHT22;54122;53.538;49.366;2023-11-21T03:48:55;1.80;93.50
67196;DHT22;54122;53.538;49.366;2023-11-21T03:51:22;1.80;93.40
67196;DHT22;54122;53.538;49.366;2023-11-21T03:53:49;1.80;93.50
67196;DHT22;54122;53.538;49.366;2023-11-21T03:56:16;1.80;93.50
67196;DHT22;54122;53.538;49.366;2023-11-21T03:58:43;1.80;93.50
67196;DHT22;54122;53.538;49.366;2023-11-21T04:01:10;1.80;93.50
67196;DHT22;54122;53.538;49.366;2023-11-21T04:03:37;1.80;93.50
67196;DHT22;54122;53.538;49.366;2023-11-21T04:06:05;1.80;93.50
67196;DHT22;54122;53.538;49.366;2023-11-21T04:08:32;1.80;93.40
67196;DHT22;54122;53.538;49.366;2023-11-21T04:11:00;1.80;93.40
67196;DHT22;54122;53.538;49.366;2023-11-21T04:13:29;1.80;93.50
67196;DHT22;54122;53.538;49.366;2023-11-21T04:15:56;1.80;93.50
67196;DHT22;54122;53.538;49.366;2023-11-21T04:18:23;1.80;93.50
67196;DHT22;54122;53.538;49.366;2023-11-21T04:20:52;1.80;93.50
67196;DHT22;54122;53.538;49.366;2023-11-21T04:23:19;1.80;93.50
67196;DHT22;54122;53.538;49.366;2023-11-21T04:25:46;1.80;93.50
67196;DHT22;54122;53.538;49.366;2023-11-21T04:28:13;1.80;93.50
67196;DHT22;54122;53.538;49.366;2023-11-21T04:30:40;1.80;93.50
67196;DHT22;54122;53.538;49.366;2023-11-21T04:33:08;1.80;93.50
67196;DHT22;54122;53.538;49.366;2023-11-21T04:35:35;1.80;93.50
67196;DHT22;54122;53.538;49.366;2023-11-21T04:38:01;1.80;93.50
67196;DHT22;54122;53.538;49.366;2023-11-21T04:40:29;1.90;93.60
67196;DHT22;54122;53.538;49.366;2023-11-21T04:42:56;1.90;93.60
67196;DHT22;54122;53.538;49.366;2023-11-21T04:45:24;1.90;93.50
67196;DHT22;54122;53.538;49.366;2023-11-21T04:47:51;1.90;93.50
67196;DHT22;54122;53.538;49.366;2023-11-21T04:50:19;1.90;93.60
67196;DHT22;54122;53.538;49.366;2023-11-21T04:52:46;1.90;93.60
67196;DHT22;54122;53.538;49.366;2023-11-21T04:55:13;1.90;93.60
67196;DHT22;54122;53.538;49.366;2023-11-21T04:57:42;1.90;93.60
67196;DHT22;54122;53.538;49.366;2023-11-21T05:00:10;1.90;93.60
67196;DHT22;54122;53.538;49.366;2023-11-21T05:02:37;1.90;93.70
67196;DHT22;54122;53.538;49.366;2023-11-21T05:05:05;1.90;93.70
67196;DHT22;54122;53.538;49.366;2023-11-21T05:07:32;1.90;93.70
67196;DHT22;54122;53.538;49.366;2023-11-21T05:10:01;1.90;93.70
67196;DHT22;54122;53.538;49.366;2023-11-21T05:12:35;1.90;93.80
67196;DHT22;54122;53.538;49.366;2023-11-21T05:15:05;1.90;93.90
67196;DHT22;54122;53.538;49.366;2023-11-21T05:17:40;2.00;93.90
67196;DHT22;54122;53.538;49.366;2023-11-21T05:20:11;2.00;93.80
67196;DHT22;54122;53.538;49.366;2023-11-21T05:22:40;2.00;93.80
67196;DHT22;54122;53.538;49.366;2023-11-21T05:25:08;2.00;93.80
67196;DHT22;54122;53.538;49.366;2023-11-21T05:27:36;2.00;93.80
67196;DHT22;54122;53.538;49.366;2023-11-21T05:30:04;2.00;93.80
67196;DHT22;54122;53.538;49.366;2023-11-21T05:32:39;2.00;93.80
67196;DHT22;54122;53.538;49.366;2023-11-21T05:35:06;2.00;93.80
67196;DHT22;54122;53.538;49.366;2023-11-21T05:37:38;2.00;93.90
67196;DHT22;54122;53.538;49.366;2023-11-21T05:40:07;2.00;93.90
67196;DHT22;54122;53.538;49.366;2023-11-21T05:42:35;2.00;93.90
67196;DHT22;54122;53.538;49.366;2023-11-21T05:45:03;2.00;94.00
67196;DHT22;54122;53.538;49.366;2023-11-21T05:47:38;2.00;94.10
67196;DHT22;54122;53.538;49.366;2023-11-21T05:50:10;2.00;94.10
67196;DHT22;54122;53.538;49.366;2023-11-21T05:52:42;2.00;94.20
67196;DHT22;54122;53.538;49.366;2023-11-21T05:55:09;2.10;94.30
67196;DHT22;54122;53.538;49.366;2023-11-21T05:57:40;2.10;94.30
67196;DHT22;54122;53.538;49.366;2023-11-21T06:00:17;2.10;94.40
67196;DHT22;54122;53.538;49.366;2023-11-21T06:02:52;2.10;94.40
67196;DHT22;54122;53.538;49.366;2023-11-21T06:05:23;2.10;94.40
67196;DHT22;54122;53.538;49.366;2023-11-21T06:07:54;2.10;94.50
67196;DHT22;54122;53.538;49.366;2023-11-21T06:10:24;2.20;94.50
67196;DHT22;54122;53.538;49.366;2023-11-21T06:13:24;2.10;94.50
67196;DHT22;54122;53.538;49.366;2023-11-21T06:15:52;2.20;94.50
67196;DHT22;54122;53.538;49.366;2023-11-21T06:18:19;2.20;94.60
67196;DHT22;54122;53.538;49.366;2023-11-21T06:20:46;2.20;94.60
67196;DHT22;54122;53.538;49.366;2023-11-21T06:23:12;2.20;94.70
67196;DHT22;54122;53.538;49.366;2023-11-21T06:25:40;2.20;94.70
67196;DHT22;54122;53.538;49.366;2023-11-21T06:28:08;2.20;94.70
67196;DHT22;54122;53.538;49.366;2023-11-21T06:30:34;2.20;94.70
67196;DHT22;54122;53.538;49.366;2023-11-21T06:33:01;2.20;94.70
67196;DHT22;54122;53.538;49.366;2023-11-21T06:35:28;2.20;94.70
67196;DHT22;54122;53.538;49.366;2023-11-21T06:37:56;2.20;94.80
67196;DHT22;54122;53.538;49.366;2023-11-21T06:40:23;2.20;94.80
67196;DHT22;54122;53.538;49.366;2023-11-21T06:42:50;2.20;94.80
67196;DHT22;54122;53.538;49.366;2023-11-21T06:45:17;2.20;94.80
67196;DHT22;54122;53.538;49.366;2023-11-21T06:47:44;2.20;94.80
67196;DHT22;54122;53.538;49.366;2023-11-21T06:50:11;2.20;94.80
67196;DHT22;54122;53.538;49.366;2023-11-21T06:52:38;2.20;94.80
67196;DHT22;54122;53.538;49.366;2023-11-21T06:55:05;2.20;94.80
67196;DHT22;54122;53.538;49.366;2023-11-21T06:57:35;2.10;94.70
67196;DHT22;54122;53.538;49.366;2023-11-21T07:00:03;2.10;94.90
67196;DHT22;54122;53.538;49.366;2023-11-21T07:02:30;2.10;94.90
67196;DHT22;54122;53.538;49.366;2023-11-21T07:04:57;2.10;95.00
67196;DHT22;54122;53.538;49.366;2023-11-21T07:07:25;2.10;95.00
67196;DHT22;54122;53.538;49.366;2023-11-21T07:09:52;2.10;95.10
67196;DHT22;54122;53.538;49.366;2023-11-21T07:12:19;2.00;95.30
67196;DHT22;54122;53.538;49.366;2023-11-21T07:14:46;2.10;95.40
67196;DHT22;54122;53.538;49.366;2023-11-21T07:17:14;2.10;95.50
67196;DHT22;54122;53.538;49.366;2023-11-21T07:19:45;2.10;95.60
67196;DHT22;54122;53.538;49.366;2023-11-21T07:22:12;2.20;95.60
67196;DHT22;54122;53.538;49.366;2023-11-21T07:24:43;2.20;95.60
67196;DHT22;54122;53.538;49.366;2023-11-21T07:27:10;2.20;95.80
67196;DHT22;54122;53.538;49.366;2023-11-21T07:29:37;2.20;95.90
67196;DHT22;54122;53.538;49.366;2023-11-21T07:32:04;2.20;96.00
67196;DHT22;54122;53.538;49.366;2023-11-21T07:34:32;2.20;96.10
67196;DHT22;54122;53.538;49.366;2023-11-21T07:36:59;2.20;96.00
67196;DHT22;54122;53.538;49.366;2023-11-21T07:39:26;2.20;96.20
67196;DHT22;54122;53.538;49.366;2023-11-21T07:41:54;2.20;96.10
67196;DHT22;54122;53.538;49.366;2023-11-21T07:44:21;2.20;96.10
67196;DHT22;54122;53.538;49.366;2023-11-21T07:46:48;2.20;96.20
67196;DHT22;54122;53.538;49.366;2023-11-21T07:49:18;2.20;96.30
67196;DHT22;54122;53.538;49.366;2023-11-21T07:51:47;2.30;96.40
67196;DHT22;54122;53.538;49.366;2023-11-21T07:54:17;2.30;96.50
67196;DHT22;54122;53.538;49.366;2023-11-21T07:56:45;2.30;96.60
67196;DHT22;54122;53.538;49.366;2023-11-21T07:59:13;2.30;96.40
67196;DHT22;54122;53.538;49.366;2023-11-21T08:01:40;2.20;96.20
67196;DHT22;54122;53.538;49.366;2023-11-21T08:04:09;2.20;96.40
67196;DHT22;54122;53.538;49.366;2023-11-21T08:06:36;2.20;96.50
67196;DHT22;54122;53.538;49.366;2023-11-21T08:09:03;2.20;96.50
67196;DHT22;54122;53.538;49.366;2023-11-21T08:11:31;2.20;96.50
67196;DHT22;54122;53.538;49.366;2023-11-21T08:13:59;2.20;96.50
67196;DHT22;54122;53.538;49.366;2023-11-21T08:16:26;2.20;96.70
67196;DHT22;54122;53.538;49.366;2023-11-21T08:18:54;2.20;96.80
67196;DHT22;54122;53.538;49.366;2023-11-21T08:21:22;2.20;96.90
67196;DHT22;54122;53.538;49.366;2023-11-21T08:23:51;2.30;96.90
67196;DHT22;54122;53.538;49.366;2023-11-21T08:26:25;2.30;96.70
67196;DHT22;54122;53.538;49.366;2023-11-21T08:28:52;2.30;96.70
67196;DHT22;54122;53.538;49.366;2023-11-21T08:31:26;2.30;96.80
67196;DHT22;54122;53.538;49.366;2023-11-21T08:33:55;2.30;96.80
67196;DHT22;54122;53.538;49.366;2023-11-21T08:36:24;2.30;96.80
67196;DHT22;54122;53.538;49.366;2023-11-21T08:38:52;2.30;96.80
67196;DHT22;54122;53.538;49.366;2023-11-21T08:41:19;2.30;96.80
67196;DHT22;54122;53.538;49.366;2023-11-21T08:43:52;2.30;96.70
67196;DHT22;54122;53.538;49.366;2023-11-21T08:46:21;2.40;96.80
67196;DHT22;54122;53.538;49.366;2023-11-21T08:48:50;2.30;96.70
67196;DHT22;54122;53.538;49.366;2023-11-21T08:51:18;2.30;96.80
67196;DHT22;54122;53.538;49.366;2023-11-21T08:53:44;2.30;96.80
67196;DHT22;54122;53.538;49.366;2023-11-21T08:56:14;2.30;96.80
67196;DHT22;54122;53.538;49.366;2023-11-21T08:58:40;2.40;96.90
67196;DHT22;54122;53.538;49.366;2023-11-21T09:01:07;2.40;97.00
67196;DHT22;54122;53.538;49.366;2023-11-21T09:03:33;2.40;96.80
67196;DHT22;54122;53.538;49.366;2023-11-21T09:06:01;2.30;96.80
67196;DHT22;54122;53.538;49.366;2023-11-21T09:08:27;2.40;97.30
67196;DHT22;54122;53.538;49.366;2023-11-21T09:10:57;2.30;96.80
67196;DHT22;54122;53.538;49.366;2023-11-21T09:13:27;2.30;96.90
67196;DHT22;54122;53.538;49.366;2023-11-21T09:15:53;2.30;96.90
67196;DHT22;54122;53.538;49.366;2023-11-21T09:18:19;2.30;96.90
67196;DHT22;54122;53.538;49.366;2023-11-21T09:20:45;2.30;97.00
67196;DHT22;54122;53.538;49.366;2023-11-21T09:23:12;2.30;96.90
67196;DHT22;54122;53.538;49.366;2023-11-21T09:25:38;2.30;96.80
67196;DHT22;54122;53.538;49.366;2023-11-21T09:28:05;2.30;96.80
67196;DHT22;54122;53.538;49.366;2023-11-21T09:30:34;2.30;96.70
67196;DHT22;54122;53.538;49.366;2023-11-21T09:33:02;2.20;96.70
67196;DHT22;54122;53.538;49.366;2023-11-21T09:35:29;2.20;96.80
67196;DHT22;54122;53.538;49.366;2023-11-21T09:37:56;2.20;96.80
67196;DHT22;54122;53.538;49.366;2023-11-21T09:40:22;2.20;96.90
67196;DHT22;54122;53.538;49.366;2023-11-21T09:42:50;2.20;96.80
67196;DHT22;54122;53.538;49.366;2023-11-21T09:45:25;2.20;96.80
67196;DHT22;54122;53.538;49.366;2023-11-21T09:47:53;2.20;97.00
67196;DHT22;54122;53.538;49.366;2023-11-21T09:50:22;2.30;97.00
67196;DHT22;54122;53.538;49.366;2023-11-21T09:53:02;2.30;97.00
67196;DHT22;54122;53.538;49.366;2023-11-21T09:55:34;2.30;97.00
67196;DHT22;54122;53.538;49.366;2023-11-21T09:58:05;2.30;97.00
67196;DHT22;54122;53.538;49.366;2023-11-21T10:00:34;2.30;97.00
67196;DHT22;54122;53.538;49.366;2023-11-21T10:03:01;2.30;97.00
67196;DHT22;54122;53.538;49.366;2023-11-21T10:05:29;2.30;97.00
67196;DHT22;54122;53.538;49.366;2023-11-21T10:07:56;2.30;96.90
67196;DHT22;54122;53.538;49.366;2023-11-21T10:10:25;2.30;96.80
67196;DHT22;54122;53.538;49.366;2023-11-21T10:12:56;2.30;96.90
67196;DHT22;54122;53.538;49.366;2023-11-21T10:15:23;2.20;96.90
67196;DHT22;54122;53.538;49.366;2023-11-21T10:17:55;2.20;97.00
67196;DHT22;54122;53.538;49.366;2023-11-21T10:20:42;2.20;97.00
67196;DHT22;54122;53.538;49.366;2023-11-21T10:23:11;2.20;97.00
67196;DHT22;54122;53.538;49.366;2023-11-21T10:25:38;2.10;97.10
67196;DHT22;54122;53.538;49.366;2023-11-21T10:28:05;2.10;97.10
67196;DHT22;54122;53.538;49.366;2023-11-21T10:30:37;2.10;97.50
67196;DHT22;54122;53.538;49.366;2023-11-21T10:33:05;2.10;97.20
67196;DHT22;54122;53.538;49.366;2023-11-21T10:35:59;2.10;97.20
67196;DHT22;54122;53.538;49.366;2023-11-21T10:38:27;2.10;97.10
67196;DHT22;54122;53.538;49.366;2023-11-21T10:40:56;2.10;97.20
67196;DHT22;54122;53.538;49.366;2023-11-21T10:43:26;2.10;97.10
67196;DHT22;54122;53.538;49.366;2023-11-21T10:45:52;2.10;97.10
67196;DHT22;54122;53.538;49.366;2023-11-21T10:48:25;2.10;97.20
67196;DHT22;54122;53.538;49.366;2023-11-21T10:50:51;2.10;97.20
67196;DHT22;54122;53.538;49.366;2023-11-21T10:53:18;2.10;97.20
67196;DHT22;54122;53.538;49.366;2023-11-21T10:55:45;2.10;97.20
67196;DHT22;54122;53.538;49.366;2023-11-21T10:58:14;2.10;97.10
67196;DHT22;54122;53.538;49.366;2023-11-21T11:00:41;2.10;97.10
67196;DHT22;54122;53.538;49.366;2023-11-21T11:03:09;2.10;97.10
67196;DHT22;54122;53.538;49.366;2023-11-21T11:05:43;2.00;97.10
67196;DHT22;54122;53.538;49.366;2023-11-21T11:08:28;2.10;97.20
67196;DHT22;54122;53.538;49.366;2023-11-21T11:10:55;2.00;97.30
67196;DHT22;54122;53.538;49.366;2023-11-21T11:13:21;2.10;97.40
67196;DHT22;54122;53.538;49.366;2023-11-21T11:15:49;2.00;97.30
67196;DHT22;54122;53.538;49.366;2023-11-21T11:18:16;2.00;97.40
67196;DHT22;54122;53.538;49.366;2023-11-21T11:20:45;2.00;97.40
67196;DHT22;54122;53.538;49.366;2023-11-21T11:34:29;2.00;97.30
67196;DHT22;54122;53.538;49.366;2023-11-21T11:37:00;1.90;97.30
67196;DHT22;54122;53.538;49.366;2023-11-21T11:39:36;2.00;97.30
67196;DHT22;54122;53.538;49.366;2023-11-21T11:42:12;1.90;97.30
67196;DHT22;54122;53.538;49.366;2023-11-21T11:47:16;1.90;97.90
67196;DHT22;54122;53.538;49.366;2023-11-21T11:52:48;1.90;97.50
67196;DHT22;54122;53.538;49.366;2023-11-21T11:55:18;1.90;97.60
67196;DHT22;54122;53.538;49.366;2023-11-21T11:57:53;1.90;97.60
67196;DHT22;54122;53.538;49.366;2023-11-21T12:03:00;1.90;97.70
67196;DHT22;54122;53.538;49.366;2023-11-21T12:05:34;1.80;97.80
67196;DHT22;54122;53.538;49.366;2023-11-21T12:08:03;1.90;97.90
67196;DHT22;54122;53.538;49.366;2023-11-21T12:10:36;1.80;98.00
67196;DHT22;54122;53.538;49.366;2023-11-21T12:13:12;1.80;98.00
67196;DHT22;54122;53.538;49.366;2023-11-21T12:15:39;1.80;98.00
67196;DHT22;54122;53.538;49.366;2023-11-21T12:18:08;1.80;98.10
67196;DHT22;54122;53.538;49.366;2023-11-21T12:20:35;1.80;98.10
67196;DHT22;54122;53.538;49.366;2023-11-21T12:23:07;1.80;98.10
67196;DHT22;54122;53.538;49.366;2023-11-21T12:25:35;1.80;98.20
67196;DHT22;54122;53.538;49.366;2023-11-21T12:28:04;1.80;98.30
67196;DHT22;54122;53.538;49.366;2023-11-21T12:30:34;1.80;98.40
67196;DHT22;54122;53.538;49.366;2023-11-21T12:33:04;1.80;98.50
67196;DHT22;54122;53.538;49.366;2023-11-21T12:35:35;1.70;98.50
67196;DHT22;54122;53.538;49.366;2023-11-21T12:38:03;1.70;98.70
67196;DHT22;54122;53.538;49.366;2023-11-21T12:40:31;1.70;98.70
67196;DHT22;54122;53.538;49.366;2023-11-21T12:42:59;1.70;98.80
67196;DHT22;54122;53.538;49.366;2023-11-21T12:45:28;1.70;98.90
67196;DHT22;54122;53.538;49.366;2023-11-21T12:48:05;1.70;98.90
67196;DHT22;54122;53.538;49.366;2023-11-21T12:50:38;1.70;99.00
67196;DHT22;54122;53.538;49.366;2023-11-21T12:53:10;1.70;99.00
67196;DHT22;54122;53.538;49.366;2023-11-21T12:55:38;1.70;99.10
67196;DHT22;54122;53.538;49.366;2023-11-21T12:58:07;1.60;99.20
67196;DHT22;54122;53.538;49.366;2023-11-21T13:00:37;1.70;99.30
67196;DHT22;54122;53.538;49.366;2023-11-21T13:03:05;1.60;99.30
67196;DHT22;54122;53.538;49.366;2023-11-21T13:05:37;1.70;99.30
67196;DHT22;54122;53.538;49.366;2023-11-21T13:08:09;1.70;99.40
67196;DHT22;54122;53.538;49.366;2023-11-21T13:10:40;1.70;99.40
67196;DHT22;54122;53.538;49.366;2023-11-21T13:13:11;1.60;99.40
67196;DHT22;54122;53.538;49.366;2023-11-21T13:15:52;1.60;99.40
67196;DHT22;54122;53.538;49.366;2023-11-21T13:18:19;1.70;99.40
67196;DHT22;54122;53.538;49.366;2023-11-21T13:20:47;1.60;99.50
67196;DHT22;54122;53.538;49.366;2023-11-21T13:23:14;1.70;99.60
67196;DHT22;54122;53.538;49.366;2023-11-21T13:25:43;1.70;99.50
67196;DHT22;54122;53.538;49.366;2023-11-21T13:28:12;1.60;99.60
67196;DHT22;54122;53.538;49.366;2023-11-21T13:30:38;1.60;99.70
67196;DHT22;54122;53.538;49.366;2023-11-21T13:33:07;1.60;99.80
67196;DHT22;54122;53.538;49.366;2023-11-21T13:35:36;1.60;99.80
67196;DHT22;54122;53.538;49.366;2023-11-21T13:38:14;1.60;99.90
67196;DHT22;54122;53.538;49.366;2023-11-21T13:40:47;1.60;99.90
67196;DHT22;54122;53.538;49.366;2023-11-21T13:43:17;1.60;99.90
67196;DHT22;54122;53.538;49.366;2023-11-21T13:45:48;1.60;99.90
67196;DHT22;54122;53.538;49.366;2023-11-21T13:48:26;1.60;99.90
67196;DHT22;54122;53.538;49.366;2023-11-21T13:50:57;1.60;99.90
67196;DHT22;54122;53.538;49.366;2023-11-21T13:53:27;1.60;99.90
67196;DHT22;54122;53.538;49.366;2023-11-21T13:55:54;1.60;99.90
67196;DHT22;54122;53.538;49.366;2023-11-21T13:58:24;1.60;99.90
67196;DHT22;54122;53.538;49.366;2023-11-21T14:01:07;1.60;99.90
67196;DHT22;54122;53.538;49.366;2023-11-21T14:03:51;1.60;99.90
67196;DHT22;54122;53.538;49.366;2023-11-21T14:06:26;1.60;99.90
67196;DHT22;54122;53.538;49.366;2023-11-21T14:09:01;1.60;99.90
67196;DHT22;54122;53.538;49.366;2023-11-21T14:11:32;1.60;99.90
67196;DHT22;54122;53.538;49.366;2023-11-21T14:14:00;1.60;99.90
67196;DHT22;54122;53.538;49.366;2023-11-21T14:16:28;1.60;99.90
67196;DHT22;54122;53.538;49.366;2023-11-21T14:18:55;1.60;99.90
67196;DHT22;54122;53.538;49.366;2023-11-21T14:21:30;1.60;99.90
67196;DHT22;54122;53.538;49.366;2023-11-21T14:23:57;1.60;99.90
67196;DHT22;54122;53.538;49.366;2023-11-21T14:26:24;1.60;99.90
67196;DHT22;54122;53.538;49.366;2023-11-21T14:28:51;1.60;99.90
67196;DHT22;54122;53.538;49.366;2023-11-21T14:31:20;1.60;99.90
67196;DHT22;54122;53.538;49.366;2023-11-21T14:33:46;1.60;99.90
67196;DHT22;54122;53.538;49.366;2023-11-21T14:36:13;1.60;99.90
67196;DHT22;54122;53.538;49.366;2023-11-21T14:38:42;1.60;99.90
67196;DHT22;54122;53.538;49.366;2023-11-21T14:41:09;1.60;99.90
67196;DHT22;54122;53.538;49.366;2023-11-21T14:43:37;1.70;99.90
67196;DHT22;54122;53.538;49.366;2023-11-21T14:46:05;1.60;99.90
67196;DHT22;54122;53.538;49.366;2023-11-21T14:48:36;1.60;99.90
67196;DHT22;54122;53.538;49.366;2023-11-21T14:51:11;1.60;99.90
67196;DHT22;54122;53.538;49.366;2023-11-21T14:53:57;1.70;99.90
67196;DHT22;54122;53.538;49.366;2023-11-21T14:56:32;1.70;99.90
67196;DHT22;54122;53.538;49.366;2023-11-21T14:59:04;1.60;99.90
67196;DHT22;54122;53.538;49.366;2023-11-21T15:01:38;1.60;99.90
67196;DHT22;54122;53.538;49.366;2023-11-21T15:04:11;1.60;99.90
67196;DHT22;54122;53.538;49.366;2023-11-21T15:06:56;1.60;99.90
67196;DHT22;54122;53.538;49.366;2023-11-21T15:09:24;1.60;99.90
67196;DHT22;54122;53.538;49.366;2023-11-21T15:12:00;1.60;99.90
67196;DHT22;54122;53.538;49.366;2023-11-21T15:14:47;1.60;99.90
67196;DHT22;54122;53.538;49.366;2023-11-21T15:17:16;1.60;99.90
67196;DHT22;54122;53.538;49.366;2023-11-21T15:19:56;1.70;99.90
67196;DHT22;54122;53.538;49.366;2023-11-21T15:22:23;1.60;99.90
67196;DHT22;54122;53.538;49.366;2023-11-21T15:24:50;1.70;99.90
67196;DHT22;54122;53.538;49.366;2023-11-21T15:27:17;1.60;99.90
67196;DHT22;54122;53.538;49.366;2023-11-21T15:29:44;1.60;99.90
67196;DHT22;54122;53.538;49.366;2023-11-21T15:32:10;1.60;99.90
67196;DHT22;54122;53.538;49.366;2023-11-21T15:34:37;1.60;99.90
67196;DHT22;54122;53.538;49.366;2023-11-21T15:37:05;1.60;99.90
67196;DHT22;54122;53.538;49.366;2023-11-21T15:39:34;1.60;99.90
67196;DHT22;54122;53.538;49.366;2023-11-21T15:42:01;1.60;99.90
67196;DHT22;54122;53.538;49.366;2023-11-21T15:44:27;1.60;99.90
67196;DHT22;54122;53.538;49.366;2023-11-21T15:46:54;1.60;99.90
67196;DHT22;54122;53.538;49.366;2023-11-21T15:49:21;1.60;99.90
67196;DHT22;54122;53.538;49.366;2023-11-21T15:51:49;1.60;99.90
67196;DHT22;54122;53.538;49.366;2023-11-21T15:54:26;1.60;99.90
67196;DHT22;54122;53.538;49.366;2023-11-21T15:56:54;1.60;99.90
67196;DHT22;54122;53.538;49.366;2023-11-21T15:59:25;1.60;99.90